createdAt,value
2019-02-22T00:04:27.714Z,98155.47
2019-02-22T00:09:32.388Z,98148.08
2019-02-22T00:14:37.216Z,98139.88
2019-02-22T00:19:41.881Z,98131.45
2019-02-22T00:24:46.583Z,98123.09
2019-02-22T00:29:51.245Z,98121.48
2019-02-22T00:34:55.988Z,98104.38
2019-02-22T00:40:00.607Z,98098.08
2019-02-22T00:45:05.360Z,98094.97
2019-02-22T00:50:10.097Z,98095.64
2019-02-22T00:55:14.730Z,98100.56
2019-02-22T01:00:20.501Z,98092.16
2019-02-22T01:05:25.189Z,98074.25
2019-02-22T01:10:31.639Z,98068.73
2019-02-22T01:15:36.366Z,98053.36
2019-02-22T01:20:41.110Z,98045.22
2019-02-22T01:25:46.870Z,98043.20
2019-02-22T01:30:51.610Z,98026.04
2019-02-22T01:35:56.355Z,98018.87
2019-02-22T01:41:02.023Z,98013.90
2019-02-22T01:46:06.762Z,98016.65
2019-02-22T01:51:11.506Z,98013.39
2019-02-22T01:56:16.245Z,97998.66
2019-02-22T02:01:20.993Z,97991.26
2019-02-22T02:06:25.730Z,97982.94
2019-02-22T02:11:30.474Z,97978.53
2019-02-22T02:16:35.106Z,97958.66
2019-02-22T02:21:40.904Z,97960.11
2019-02-22T02:26:45.492Z,97970.27
2019-02-22T02:31:51.132Z,97969.89
2019-02-22T02:36:56.952Z,97950.84
2019-02-22T02:42:01.800Z,97941.55
2019-02-22T02:47:06.535Z,97934.45
2019-02-22T02:52:11.279Z,97926.55
2019-02-22T02:57:16.952Z,97917.58
2019-02-22T03:02:23.225Z,97916.99
2019-02-22T03:07:37.409Z,97905.41
2019-02-22T03:12:42.698Z,97903.27
2019-02-22T03:17:47.491Z,97898.27
2019-02-22T03:22:52.229Z,97891.27
2019-02-22T03:27:56.971Z,97875.45
2019-02-22T03:33:02.575Z,97861.10
2019-02-22T03:38:08.363Z,97862.69
2019-02-22T03:43:14.009Z,97853.16
2019-02-22T03:48:18.597Z,97859.23
2019-02-22T03:53:24.783Z,97855.27
2019-02-22T03:58:29.426Z,97843.13
2019-02-22T04:03:34.181Z,97833.09
2019-02-22T04:08:39.010Z,97826.33
2019-02-22T04:13:44.610Z,97815.89
2019-02-22T04:18:49.417Z,97824.08
2019-02-22T04:23:54.259Z,97819.25
2019-02-22T04:28:59.022Z,97805.96
2019-02-22T04:34:03.648Z,97808.38
2019-02-22T04:39:08.222Z,97799.16
2019-02-22T04:44:12.809Z,97788.46
2019-02-22T04:49:17.563Z,97781.14
2019-02-22T04:54:22.308Z,97774.80
2019-02-22T04:59:27.910Z,97779.46
2019-02-22T05:04:32.711Z,97768.63
2019-02-22T05:09:38.584Z,97769.56
2019-02-22T05:14:45.172Z,97772.05
2019-02-22T05:19:49.606Z,97764.45
2019-02-22T05:24:54.244Z,97755.38
2019-02-22T05:29:59.914Z,97752.21
2019-02-22T05:35:04.647Z,97750.32
2019-02-22T05:40:09.286Z,97750.27
2019-02-22T05:45:13.928Z,97739.63
2019-02-22T05:50:18.983Z,97749.44
2019-02-22T05:55:23.836Z,97745.25
2019-02-22T06:00:28.684Z,97744.78
2019-02-22T06:05:33.519Z,97736.00
2019-02-22T06:10:38.369Z,97727.08
2019-02-22T06:15:44.227Z,97730.41
2019-02-22T06:20:48.881Z,97726.88
2019-02-22T06:25:53.613Z,97720.36
2019-02-22T06:30:58.353Z,97721.00
2019-02-22T06:36:03.095Z,97717.84
2019-02-22T06:41:07.955Z,97712.09
2019-02-22T06:46:12.792Z,97710.98
2019-02-22T06:51:17.540Z,97709.65
2019-02-22T06:56:24.182Z,97706.20
2019-02-22T07:01:28.607Z,97699.41
2019-02-22T07:06:33.294Z,97689.73
2019-02-22T07:11:48.692Z,97686.50
2019-02-22T07:16:53.339Z,97674.86
2019-02-22T07:21:58.083Z,97669.30
2019-02-22T07:27:02.735Z,97659.97
2019-02-22T07:32:07.456Z,97657.16
2019-02-22T07:37:13.327Z,97650.34
2019-02-22T07:42:18.063Z,97647.20
2019-02-22T07:47:22.912Z,97647.24
2019-02-22T07:52:27.656Z,97644.14
2019-02-22T07:57:32.394Z,97637.20
2019-02-22T08:02:37.137Z,97624.69
2019-02-22T08:07:43.015Z,97628.76
2019-02-22T08:12:47.965Z,97625.30
2019-02-22T08:17:52.709Z,97625.88
2019-02-22T08:22:57.545Z,97620.39
2019-02-22T08:28:02.283Z,97616.91
2019-02-22T08:33:08.575Z,97618.60
2019-02-22T08:38:13.438Z,97616.66
2019-02-22T08:43:18.155Z,97609.28
2019-02-22T08:48:23.003Z,97597.24
2019-02-22T08:53:27.742Z,97591.74
2019-02-22T08:58:32.484Z,97583.25
2019-02-22T09:03:37.126Z,97589.79
2019-02-22T09:08:41.869Z,97588.32
2019-02-22T09:13:48.048Z,97585.80
2019-02-22T09:18:52.996Z,97588.98
2019-02-22T09:23:57.741Z,97586.63
2019-02-22T09:29:03.941Z,97586.12
2019-02-22T09:34:08.661Z,97580.70
2019-02-22T09:39:13.403Z,97579.17
2019-02-22T09:44:18.139Z,97575.61
2019-02-22T09:49:22.906Z,97568.92
2019-02-22T09:54:27.716Z,97567.45
2019-02-22T09:59:33.703Z,97558.14
2019-02-22T10:04:39.414Z,97549.77
2019-02-22T10:09:44.313Z,97545.65
2019-02-22T10:14:49.058Z,97540.05
2019-02-22T10:19:53.798Z,97535.66
2019-02-22T10:24:58.543Z,97531.69
2019-02-22T10:30:03.284Z,97519.59
2019-02-22T10:35:09.256Z,97520.73
2019-02-22T10:40:13.999Z,97510.11
2019-02-22T10:45:18.754Z,97503.31
2019-02-22T10:50:24.548Z,97493.91
2019-02-22T10:55:29.355Z,97490.89
2019-02-22T11:00:33.979Z,97474.38
2019-02-22T11:05:38.746Z,97477.36
2019-02-22T11:10:43.486Z,97466.56
2019-02-22T11:15:48.816Z,97463.52
2019-02-22T11:20:53.584Z,97463.37
2019-02-22T11:25:58.366Z,97454.70
2019-02-22T11:31:03.184Z,97447.07
2019-02-22T11:36:08.029Z,97437.12
2019-02-22T11:41:14.093Z,97429.09
2019-02-22T11:46:18.831Z,97421.25
2019-02-22T11:51:25.263Z,97417.75
2019-02-22T11:56:31.805Z,97404.35
2019-02-22T12:01:37.862Z,97398.47
2019-02-22T12:06:44.411Z,97388.20
2019-02-22T12:11:51.067Z,97386.56
2019-02-22T12:16:56.205Z,97377.63
2019-02-22T12:22:00.967Z,97367.33
2019-02-22T12:27:07.743Z,97361.52
2019-02-22T12:32:12.893Z,97347.95
2019-02-22T12:37:19.985Z,97348.06
2019-02-22T12:42:24.834Z,97341.43
2019-02-22T12:47:30.710Z,97338.00
2019-02-22T12:52:36.678Z,97338.61
2019-02-22T12:57:41.421Z,97336.83
2019-02-22T13:02:46.171Z,97332.94
2019-02-22T13:07:52.678Z,97338.11
2019-02-22T13:12:58.013Z,97337.54
2019-02-22T13:18:03.172Z,97333.20
2019-02-22T13:23:09.141Z,97330.55
2019-02-22T13:28:13.934Z,97337.44
2019-02-22T13:33:18.919Z,97335.11
2019-02-22T13:38:23.646Z,97340.52
2019-02-22T13:43:28.412Z,97340.92
2019-02-22T13:48:33.239Z,97347.11
2019-02-22T13:53:37.993Z,97345.45
2019-02-22T13:58:42.670Z,97338.36
2019-02-22T14:03:47.377Z,97337.07
2019-02-22T14:08:53.151Z,97330.84
2019-02-22T14:13:57.991Z,97340.37
2019-02-22T14:19:02.635Z,97330.52
2019-02-22T14:24:07.384Z,97332.83
2019-02-22T14:29:12.348Z,97336.16
2019-02-22T14:34:17.170Z,97331.92
2019-02-22T14:39:21.911Z,97339.96
2019-02-22T14:44:26.860Z,97340.07
2019-02-22T14:49:31.704Z,97340.64
2019-02-22T14:54:36.753Z,97338.55
2019-02-22T14:59:41.397Z,97331.19
2019-02-22T15:04:48.483Z,97337.62
2019-02-22T15:09:53.439Z,97340.68
2019-02-22T15:14:59.560Z,97336.25
2019-02-22T15:20:06.769Z,97340.29
2019-02-22T15:25:14.462Z,97338.83
2019-02-22T15:30:19.973Z,97350.72
2019-02-22T15:35:26.585Z,97352.86
2019-02-22T15:40:31.934Z,97354.02
2019-02-22T15:45:38.368Z,97360.58
2019-02-22T15:50:44.545Z,97363.45
2019-02-22T15:55:52.612Z,97371.75
2019-02-22T16:00:57.776Z,97383.97
2019-02-22T16:06:02.713Z,97383.69
2019-02-22T16:11:08.203Z,97390.67
2019-02-22T16:16:22.939Z,97395.69
2019-02-22T16:21:22.258Z,97403.19
2019-02-22T16:26:29.475Z,97410.01
2019-02-22T16:31:35.104Z,97409.19
2019-02-22T16:36:41.125Z,97411.31
2019-02-22T16:41:47.036Z,97416.85
2019-02-22T16:46:53.231Z,97418.35
2019-02-22T16:51:58.162Z,97414.78
2019-02-22T16:57:02.842Z,97426.24
2019-02-22T17:02:07.856Z,97422.70
2019-02-22T17:07:14.994Z,97427.83
2019-02-22T17:12:20.040Z,97427.44
2019-02-22T17:17:24.881Z,97434.11
2019-02-22T17:22:31.059Z,97420.14
2019-02-22T17:27:35.808Z,97426.08
2019-02-22T17:32:40.649Z,97424.16
2019-02-22T17:37:48.145Z,97422.59
2019-02-22T17:42:53.126Z,97425.69
2019-02-22T17:47:57.967Z,97419.59
2019-02-22T17:53:02.805Z,97403.43
2019-02-22T17:58:07.625Z,97409.56
2019-02-22T18:03:15.198Z,97405.67
2019-02-22T18:08:20.153Z,97399.17
2019-02-22T18:13:24.863Z,97397.44
2019-02-22T18:18:29.587Z,97399.03
2019-02-22T18:23:35.145Z,97395.23
2019-02-22T18:28:39.888Z,97395.22
2019-02-22T18:33:44.866Z,97390.70
2019-02-22T18:38:49.898Z,97387.42
2019-02-22T18:43:54.739Z,97391.45
2019-02-22T18:48:59.677Z,97381.81
2019-02-22T18:54:05.377Z,97374.19
2019-02-22T18:59:10.501Z,97372.03
2019-02-22T19:04:16.911Z,97378.33
2019-02-22T19:09:21.743Z,97371.77
2019-02-22T19:14:26.859Z,97370.06
2019-02-22T19:19:33.274Z,97369.85
2019-02-22T19:24:38.099Z,97370.47
2019-02-22T19:29:43.070Z,97382.86
2019-02-22T19:34:48.071Z,97375.64
2019-02-22T19:39:52.942Z,97405.17
2019-02-22T19:44:57.693Z,97418.28
2019-02-22T19:50:02.552Z,97434.39
2019-02-22T19:55:10.908Z,97445.31
2019-02-22T20:00:16.934Z,97472.09
2019-02-22T20:05:22.809Z,97469.78
2019-02-22T20:10:28.202Z,97485.33
2019-02-22T20:15:33.421Z,97465.55
2019-02-22T20:20:38.049Z,97490.67
2019-02-22T20:25:43.793Z,97486.70
2019-02-22T20:30:49.175Z,97505.27
2019-02-22T20:35:54.490Z,97524.41
2019-02-22T20:41:00.609Z,97531.22
2019-02-22T20:46:05.619Z,97539.05
2019-02-22T20:51:10.400Z,97547.59
2019-02-22T20:56:16.847Z,97547.24
2019-02-22T21:01:21.836Z,97557.18
2019-02-22T21:06:26.568Z,97574.74
2019-02-22T21:11:31.416Z,97587.38
2019-02-22T21:16:36.401Z,97594.51
2019-02-22T21:21:42.211Z,97603.03
2019-02-22T21:26:47.284Z,97604.12
2019-02-22T21:31:52.696Z,97601.10
2019-02-22T21:36:57.614Z,97619.16
2019-02-22T21:42:02.340Z,97617.17
2019-02-22T21:47:07.176Z,97616.33
2019-02-22T21:52:14.517Z,97628.11
2019-02-22T21:57:19.234Z,97645.73
2019-02-22T22:02:23.748Z,97651.42
2019-02-22T22:07:28.411Z,97659.45
2019-02-22T22:12:35.505Z,97674.83
2019-02-22T22:17:41.363Z,97692.66
2019-02-22T22:22:46.102Z,97701.77
2019-02-22T22:27:50.741Z,97719.97
2019-02-22T22:32:55.593Z,97739.91
2019-02-22T22:38:00.333Z,97756.25
2019-02-22T22:43:05.077Z,97777.22
2019-02-22T22:48:09.819Z,97799.20
2019-02-22T22:53:14.461Z,97817.58
2019-02-22T22:58:19.100Z,97828.69
2019-02-22T23:03:23.850Z,97847.57
2019-02-22T23:08:28.584Z,97864.83
2019-02-22T23:13:33.343Z,97892.84
2019-02-22T23:18:38.937Z,97902.61
2019-02-22T23:23:43.748Z,97942.86
2019-02-22T23:28:50.321Z,97945.17
2019-02-22T23:33:54.855Z,97974.17
2019-02-22T23:38:59.597Z,97994.97
2019-02-22T23:44:04.255Z,98018.43
2019-02-22T23:49:13.131Z,98043.20
2019-02-22T23:54:15.160Z,98056.81
2019-02-22T23:59:19.895Z,98076.53
